sensor_id;sensor_type;location;lat;lon;timestamp;P1;durP1;ratioP1;P2;durP2;ratioP2
22965;SDS011;11649;48.090;9.754;2022-08-19T00:01:43;59.28;;;40.92;;
22965;SDS011;11649;48.090;9.754;2022-08-19T00:04:19;68.65;;;44.47;;
22965;SDS011;11649;48.090;9.754;2022-08-19T00:06:48;66.03;;;42.95;;
22965;SDS011;11649;48.090;9.754;2022-08-19T00:09:16;66.00;;;44.63;;
22965;SDS011;11649;48.090;9.754;2022-08-19T00:11:45;76.60;;;47.83;;
22965;SDS011;11649;48.090;9.754;2022-08-19T00:14:13;71.00;;;46.38;;
22965;SDS011;11649;48.090;9.754;2022-08-19T00:16:43;68.30;;;44.92;;
22965;SDS011;11649;48.090;9.754;2022-08-19T00:19:11;68.38;;;45.75;;
22965;SDS011;11649;48.090;9.754;2022-08-19T00:21:38;63.47;;;44.60;;
22965;SDS011;11649;48.090;9.754;2022-08-19T00:24:06;65.13;;;46.05;;
22965;SDS011;11649;48.090;9.754;2022-08-19T00:26:35;71.47;;;47.15;;
22965;SDS011;11649;48.090;9.754;2022-08-19T00:29:05;73.20;;;47.60;;
22965;SDS011;11649;48.090;9.754;2022-08-19T00:31:33;74.57;;;47.78;;
22965;SDS011;11649;48.090;9.754;2022-08-19T00:34:00;74.85;;;49.53;;
22965;SDS011;11649;48.090;9.754;2022-08-19T00:36:27;68.78;;;47.35;;
22965;SDS011;11649;48.090;9.754;2022-08-19T00:38:55;66.35;;;45.05;;
22965;SDS011;11649;48.090;9.754;2022-08-19T00:41:22;67.35;;;46.35;;
22965;SDS011;11649;48.090;9.754;2022-08-19T00:44:00;67.45;;;46.80;;
22965;SDS011;11649;48.090;9.754;2022-08-19T00:46:31;56.97;;;43.15;;
22965;SDS011;11649;48.090;9.754;2022-08-19T00:48:59;60.83;;;45.08;;
22965;SDS011;11649;48.090;9.754;2022-08-19T00:51:29;61.30;;;44.33;;
22965;SDS011;11649;48.090;9.754;2022-08-19T00:53:58;54.25;;;40.50;;
22965;SDS011;11649;48.090;9.754;2022-08-19T00:56:27;53.67;;;40.92;;
22965;SDS011;11649;48.090;9.754;2022-08-19T00:58:55;56.78;;;41.45;;
22965;SDS011;11649;48.090;9.754;2022-08-19T01:01:24;44.60;;;35.92;;
22965;SDS011;11649;48.090;9.754;2022-08-19T01:03:51;50.70;;;37.88;;
22965;SDS011;11649;48.090;9.754;2022-08-19T01:06:24;49.42;;;37.75;;
22965;SDS011;11649;48.090;9.754;2022-08-19T01:08:51;51.65;;;38.58;;
22965;SDS011;11649;48.090;9.754;2022-08-19T01:11:20;46.20;;;37.22;;
22965;SDS011;11649;48.090;9.754;2022-08-19T01:13:47;47.42;;;37.05;;
22965;SDS011;11649;48.090;9.754;2022-08-19T01:16:16;44.30;;;36.00;;
22965;SDS011;11649;48.090;9.754;2022-08-19T01:18:46;42.75;;;33.38;;
22965;SDS011;11649;48.090;9.754;2022-08-19T01:23:53;38.20;;;31.52;;
22965;SDS011;11649;48.090;9.754;2022-08-19T01:26:21;41.45;;;34.15;;
22965;SDS011;11649;48.090;9.754;2022-08-19T01:28:52;42.33;;;34.63;;
22965;SDS011;11649;48.090;9.754;2022-08-19T01:31:26;41.75;;;32.88;;
22965;SDS011;11649;48.090;9.754;2022-08-19T01:33:58;39.95;;;31.40;;
22965;SDS011;11649;48.090;9.754;2022-08-19T01:39:12;39.67;;;32.33;;
22965;SDS011;11649;48.090;9.754;2022-08-19T01:41:40;38.53;;;31.52;;
22965;SDS011;11649;48.090;9.754;2022-08-19T01:44:08;35.92;;;30.17;;
22965;SDS011;11649;48.090;9.754;2022-08-19T01:46:44;33.83;;;28.65;;
22965;SDS011;11649;48.090;9.754;2022-08-19T01:49:14;35.83;;;29.38;;
22965;SDS011;11649;48.090;9.754;2022-08-19T01:51:41;34.20;;;28.65;;
22965;SDS011;11649;48.090;9.754;2022-08-19T01:54:09;34.85;;;29.13;;
22965;SDS011;11649;48.090;9.754;2022-08-19T01:56:37;37.17;;;29.85;;
22965;SDS011;11649;48.090;9.754;2022-08-19T01:59:06;31.17;;;26.75;;
22965;SDS011;11649;48.090;9.754;2022-08-19T02:01:35;34.55;;;28.50;;
22965;SDS011;11649;48.090;9.754;2022-08-19T02:04:02;32.70;;;27.15;;
22965;SDS011;11649;48.090;9.754;2022-08-19T02:06:29;32.67;;;28.10;;
22965;SDS011;11649;48.090;9.754;2022-08-19T02:08:56;33.53;;;28.05;;
22965;SDS011;11649;48.090;9.754;2022-08-19T02:11:27;30.35;;;26.02;;
22965;SDS011;11649;48.090;9.754;2022-08-19T02:13:58;27.98;;;24.33;;
22965;SDS011;11649;48.090;9.754;2022-08-19T02:16:25;30.65;;;25.20;;
22965;SDS011;11649;48.090;9.754;2022-08-19T02:18:52;28.88;;;25.27;;
22965;SDS011;11649;48.090;9.754;2022-08-19T02:21:21;32.03;;;25.00;;
22965;SDS011;11649;48.090;9.754;2022-08-19T02:23:49;28.70;;;24.73;;
22965;SDS011;11649;48.090;9.754;2022-08-19T02:26:17;29.05;;;25.13;;
22965;SDS011;11649;48.090;9.754;2022-08-19T02:28:45;30.08;;;25.83;;
22965;SDS011;11649;48.090;9.754;2022-08-19T02:31:14;36.60;;;29.25;;
22965;SDS011;11649;48.090;9.754;2022-08-19T02:33:41;35.28;;;28.38;;
22965;SDS011;11649;48.090;9.754;2022-08-19T02:36:10;37.70;;;29.58;;
22965;SDS011;11649;48.090;9.754;2022-08-19T02:38:37;34.30;;;28.45;;
22965;SDS011;11649;48.090;9.754;2022-08-19T02:41:07;41.60;;;30.48;;
22965;SDS011;11649;48.090;9.754;2022-08-19T02:43:36;44.20;;;31.08;;
22965;SDS011;11649;48.090;9.754;2022-08-19T02:46:14;38.75;;;30.27;;
22965;SDS011;11649;48.090;9.754;2022-08-19T02:48:41;35.53;;;28.63;;
22965;SDS011;11649;48.090;9.754;2022-08-19T02:51:14;32.20;;;27.58;;
22965;SDS011;11649;48.090;9.754;2022-08-19T02:53:42;32.85;;;27.00;;
22965;SDS011;11649;48.090;9.754;2022-08-19T02:56:09;38.05;;;27.63;;
22965;SDS011;11649;48.090;9.754;2022-08-19T02:58:37;30.25;;;26.10;;
22965;SDS011;11649;48.090;9.754;2022-08-19T03:01:04;32.15;;;26.88;;
22965;SDS011;11649;48.090;9.754;2022-08-19T03:03:32;30.35;;;25.13;;
22965;SDS011;11649;48.090;9.754;2022-08-19T03:06:17;32.42;;;25.77;;
22965;SDS011;11649;48.090;9.754;2022-08-19T03:08:45;35.55;;;27.08;;
22965;SDS011;11649;48.090;9.754;2022-08-19T03:11:20;38.40;;;28.95;;
22965;SDS011;11649;48.090;9.754;2022-08-19T03:13:55;39.65;;;30.58;;
22965;SDS011;11649;48.090;9.754;2022-08-19T03:16:23;34.15;;;27.33;;
22965;SDS011;11649;48.090;9.754;2022-08-19T03:18:52;34.03;;;26.80;;
22965;SDS011;11649;48.090;9.754;2022-08-19T03:21:21;30.27;;;25.73;;
22965;SDS011;11649;48.090;9.754;2022-08-19T03:23:48;33.65;;;26.25;;
22965;SDS011;11649;48.090;9.754;2022-08-19T03:26:15;31.83;;;25.98;;
22965;SDS011;11649;48.090;9.754;2022-08-19T03:28:43;28.30;;;23.92;;
22965;SDS011;11649;48.090;9.754;2022-08-19T03:31:25;27.30;;;23.10;;
22965;SDS011;11649;48.090;9.754;2022-08-19T03:34:13;29.20;;;23.45;;
22965;SDS011;11649;48.090;9.754;2022-08-19T03:36:44;28.10;;;24.27;;
22965;SDS011;11649;48.090;9.754;2022-08-19T03:39:12;28.23;;;24.33;;
22965;SDS011;11649;48.090;9.754;2022-08-19T03:41:40;25.58;;;22.67;;
22965;SDS011;11649;48.090;9.754;2022-08-19T03:44:11;29.23;;;23.77;;
22965;SDS011;11649;48.090;9.754;2022-08-19T03:46:44;28.83;;;23.33;;
22965;SDS011;11649;48.090;9.754;2022-08-19T03:49:12;31.30;;;24.65;;
22965;SDS011;11649;48.090;9.754;2022-08-19T03:51:40;35.63;;;26.95;;
22965;SDS011;11649;48.090;9.754;2022-08-19T03:54:09;36.22;;;27.52;;
22965;SDS011;11649;48.090;9.754;2022-08-19T03:56:39;33.10;;;28.17;;
22965;SDS011;11649;48.090;9.754;2022-08-19T03:59:11;36.50;;;27.65;;
22965;SDS011;11649;48.090;9.754;2022-08-19T04:01:41;36.35;;;28.27;;
22965;SDS011;11649;48.090;9.754;2022-08-19T04:04:08;36.55;;;28.75;;
22965;SDS011;11649;48.090;9.754;2022-08-19T04:06:36;34.72;;;28.85;;
22965;SDS011;11649;48.090;9.754;2022-08-19T04:09:05;37.10;;;28.77;;
22965;SDS011;11649;48.090;9.754;2022-08-19T04:11:38;34.45;;;28.25;;
22965;SDS011;11649;48.090;9.754;2022-08-19T04:14:11;32.03;;;27.00;;
22965;SDS011;11649;48.090;9.754;2022-08-19T04:16:40;33.55;;;27.65;;
22965;SDS011;11649;48.090;9.754;2022-08-19T04:19:07;31.60;;;26.60;;
22965;SDS011;11649;48.090;9.754;2022-08-19T04:21:34;31.60;;;25.00;;
22965;SDS011;11649;48.090;9.754;2022-08-19T04:24:00;33.00;;;27.13;;
22965;SDS011;11649;48.090;9.754;2022-08-19T04:26:32;31.92;;;26.40;;
22965;SDS011;11649;48.090;9.754;2022-08-19T04:29:02;30.88;;;25.27;;
22965;SDS011;11649;48.090;9.754;2022-08-19T04:31:37;30.10;;;25.90;;
22965;SDS011;11649;48.090;9.754;2022-08-19T04:34:06;30.92;;;26.52;;
22965;SDS011;11649;48.090;9.754;2022-08-19T04:36:37;32.67;;;27.42;;
22965;SDS011;11649;48.090;9.754;2022-08-19T04:39:07;30.27;;;25.65;;
22965;SDS011;11649;48.090;9.754;2022-08-19T04:41:37;31.35;;;25.63;;
22965;SDS011;11649;48.090;9.754;2022-08-19T04:44:23;31.25;;;25.92;;
22965;SDS011;11649;48.090;9.754;2022-08-19T04:46:51;39.22;;;30.75;;
22965;SDS011;11649;48.090;9.754;2022-08-19T04:49:20;33.65;;;27.70;;
22965;SDS011;11649;48.090;9.754;2022-08-19T04:51:49;33.95;;;27.60;;
22965;SDS011;11649;48.090;9.754;2022-08-19T04:54:18;32.13;;;27.10;;
22965;SDS011;11649;48.090;9.754;2022-08-19T04:57:04;35.40;;;27.38;;
22965;SDS011;11649;48.090;9.754;2022-08-19T04:59:33;31.90;;;26.25;;
22965;SDS011;11649;48.090;9.754;2022-08-19T05:02:01;33.35;;;27.90;;
22965;SDS011;11649;48.090;9.754;2022-08-19T05:04:28;35.38;;;27.52;;
22965;SDS011;11649;48.090;9.754;2022-08-19T05:06:58;35.58;;;28.48;;
22965;SDS011;11649;48.090;9.754;2022-08-19T05:09:28;36.38;;;28.83;;
22965;SDS011;11649;48.090;9.754;2022-08-19T05:12:16;40.55;;;32.05;;
22965;SDS011;11649;48.090;9.754;2022-08-19T05:14:44;38.60;;;30.25;;
22965;SDS011;11649;48.090;9.754;2022-08-19T05:17:14;37.10;;;29.20;;
22965;SDS011;11649;48.090;9.754;2022-08-19T05:20:01;40.05;;;31.15;;
22965;SDS011;11649;48.090;9.754;2022-08-19T05:22:47;39.97;;;30.63;;
22965;SDS011;11649;48.090;9.754;2022-08-19T05:25:16;37.20;;;29.80;;
22965;SDS011;11649;48.090;9.754;2022-08-19T05:27:46;38.30;;;30.77;;
22965;SDS011;11649;48.090;9.754;2022-08-19T05:30:15;42.17;;;31.58;;
22965;SDS011;11649;48.090;9.754;2022-08-19T05:32:42;40.70;;;31.45;;
22965;SDS011;11649;48.090;9.754;2022-08-19T05:35:09;43.67;;;30.85;;
22965;SDS011;11649;48.090;9.754;2022-08-19T05:37:37;43.25;;;32.20;;
22965;SDS011;11649;48.090;9.754;2022-08-19T05:40:07;43.10;;;31.90;;
22965;SDS011;11649;48.090;9.754;2022-08-19T05:42:35;41.75;;;31.67;;
22965;SDS011;11649;48.090;9.754;2022-08-19T05:45:02;46.60;;;32.97;;
22965;SDS011;11649;48.090;9.754;2022-08-19T05:47:30;44.72;;;32.90;;
22965;SDS011;11649;48.090;9.754;2022-08-19T05:49:58;46.28;;;32.20;;
22965;SDS011;11649;48.090;9.754;2022-08-19T05:52:25;46.53;;;32.83;;
22965;SDS011;11649;48.090;9.754;2022-08-19T05:54:53;45.08;;;31.83;;
22965;SDS011;11649;48.090;9.754;2022-08-19T05:57:23;46.47;;;32.72;;
22965;SDS011;11649;48.090;9.754;2022-08-19T05:59:51;49.80;;;32.65;;
22965;SDS011;11649;48.090;9.754;2022-08-19T06:02:27;51.72;;;35.25;;
22965;SDS011;11649;48.090;9.754;2022-08-19T06:04:57;56.03;;;36.65;;
22965;SDS011;11649;48.090;9.754;2022-08-19T06:07:24;55.22;;;36.90;;
22965;SDS011;11649;48.090;9.754;2022-08-19T06:09:51;56.10;;;36.17;;
22965;SDS011;11649;48.090;9.754;2022-08-19T06:12:26;55.92;;;36.83;;
22965;SDS011;11649;48.090;9.754;2022-08-19T06:14:55;54.67;;;36.13;;
22965;SDS011;11649;48.090;9.754;2022-08-19T06:17:27;56.95;;;36.50;;
22965;SDS011;11649;48.090;9.754;2022-08-19T06:19:56;58.40;;;36.92;;
22965;SDS011;11649;48.090;9.754;2022-08-19T06:22:24;57.33;;;35.80;;
22965;SDS011;11649;48.090;9.754;2022-08-19T06:24:52;55.05;;;36.50;;
22965;SDS011;11649;48.090;9.754;2022-08-19T06:27:20;55.67;;;36.53;;
22965;SDS011;11649;48.090;9.754;2022-08-19T06:29:48;58.67;;;37.67;;
22965;SDS011;11649;48.090;9.754;2022-08-19T06:32:16;59.28;;;37.33;;
22965;SDS011;11649;48.090;9.754;2022-08-19T06:34:44;60.03;;;38.40;;
22965;SDS011;11649;48.090;9.754;2022-08-19T06:37:11;60.50;;;38.42;;
22965;SDS011;11649;48.090;9.754;2022-08-19T06:39:39;58.35;;;38.03;;
22965;SDS011;11649;48.090;9.754;2022-08-19T06:42:07;62.20;;;37.58;;
22965;SDS011;11649;48.090;9.754;2022-08-19T06:44:38;61.92;;;38.67;;
22965;SDS011;11649;48.090;9.754;2022-08-19T06:47:10;58.65;;;37.85;;
22965;SDS011;11649;48.090;9.754;2022-08-19T06:49:48;63.10;;;39.28;;
22965;SDS011;11649;48.090;9.754;2022-08-19T06:52:15;61.50;;;39.47;;
22965;SDS011;11649;48.090;9.754;2022-08-19T06:54:42;70.53;;;42.03;;
22965;SDS011;11649;48.090;9.754;2022-08-19T06:57:22;64.00;;;40.13;;
22965;SDS011;11649;48.090;9.754;2022-08-19T06:59:50;62.85;;;39.63;;
22965;SDS011;11649;48.090;9.754;2022-08-19T07:02:17;58.45;;;38.22;;
22965;SDS011;11649;48.090;9.754;2022-08-19T07:04:45;64.13;;;41.55;;
22965;SDS011;11649;48.090;9.754;2022-08-19T07:07:12;54.63;;;37.00;;
22965;SDS011;11649;48.090;9.754;2022-08-19T07:09:46;53.33;;;35.53;;
22965;SDS011;11649;48.090;9.754;2022-08-19T07:12:25;54.10;;;35.63;;
22965;SDS011;11649;48.090;9.754;2022-08-19T07:14:55;52.42;;;35.85;;
22965;SDS011;11649;48.090;9.754;2022-08-19T07:17:23;52.00;;;36.65;;
22965;SDS011;11649;48.090;9.754;2022-08-19T07:19:50;51.90;;;36.28;;
22965;SDS011;11649;48.090;9.754;2022-08-19T07:22:20;49.15;;;35.70;;
22965;SDS011;11649;48.090;9.754;2022-08-19T07:24:50;54.17;;;37.40;;
22965;SDS011;11649;48.090;9.754;2022-08-19T07:27:17;54.78;;;37.83;;
22965;SDS011;11649;48.090;9.754;2022-08-19T07:29:50;52.75;;;36.40;;
22965;SDS011;11649;48.090;9.754;2022-08-19T07:32:22;53.35;;;37.83;;
22965;SDS011;11649;48.090;9.754;2022-08-19T07:34:51;56.60;;;38.90;;
22965;SDS011;11649;48.090;9.754;2022-08-19T07:37:18;57.10;;;37.97;;
22965;SDS011;11649;48.090;9.754;2022-08-19T07:39:45;56.63;;;37.78;;
22965;SDS011;11649;48.090;9.754;2022-08-19T07:42:12;58.95;;;38.22;;
22965;SDS011;11649;48.090;9.754;2022-08-19T07:44:40;58.22;;;38.25;;
22965;SDS011;11649;48.090;9.754;2022-08-19T07:47:15;60.83;;;40.85;;
22965;SDS011;11649;48.090;9.754;2022-08-19T07:50:04;66.00;;;42.25;;
22965;SDS011;11649;48.090;9.754;2022-08-19T07:52:34;70.13;;;42.38;;
22965;SDS011;11649;48.090;9.754;2022-08-19T07:55:05;62.83;;;41.65;;
22965;SDS011;11649;48.090;9.754;2022-08-19T07:57:54;65.75;;;41.58;;
22965;SDS011;11649;48.090;9.754;2022-08-19T08:00:21;72.32;;;43.53;;
22965;SDS011;11649;48.090;9.754;2022-08-19T08:02:49;66.93;;;41.70;;
22965;SDS011;11649;48.090;9.754;2022-08-19T08:05:18;71.70;;;44.33;;
22965;SDS011;11649;48.090;9.754;2022-08-19T08:08:08;69.47;;;43.67;;
22965;SDS011;11649;48.090;9.754;2022-08-19T08:10:54;70.80;;;41.58;;
22965;SDS011;11649;48.090;9.754;2022-08-19T08:13:23;69.85;;;44.35;;
22965;SDS011;11649;48.090;9.754;2022-08-19T08:15:51;63.88;;;40.55;;
22965;SDS011;11649;48.090;9.754;2022-08-19T08:18:22;59.80;;;40.60;;
22965;SDS011;11649;48.090;9.754;2022-08-19T08:20:53;71.72;;;44.33;;
22965;SDS011;11649;48.090;9.754;2022-08-19T08:23:22;71.55;;;43.67;;
22965;SDS011;11649;48.090;9.754;2022-08-19T08:25:52;70.00;;;41.50;;
22965;SDS011;11649;48.090;9.754;2022-08-19T08:28:21;62.20;;;40.50;;
22965;SDS011;11649;48.090;9.754;2022-08-19T08:30:50;63.72;;;40.53;;
22965;SDS011;11649;48.090;9.754;2022-08-19T08:33:22;62.75;;;41.60;;
22965;SDS011;11649;48.090;9.754;2022-08-19T08:36:06;55.75;;;39.25;;
22965;SDS011;11649;48.090;9.754;2022-08-19T08:38:34;57.72;;;38.55;;
22965;SDS011;11649;48.090;9.754;2022-08-19T08:44:02;52.67;;;37.60;;
22965;SDS011;11649;48.090;9.754;2022-08-19T08:46:35;56.75;;;39.67;;
22965;SDS011;11649;48.090;9.754;2022-08-19T08:49:23;51.40;;;36.80;;
22965;SDS011;11649;48.090;9.754;2022-08-19T08:52:06;52.47;;;37.13;;
22965;SDS011;11649;48.090;9.754;2022-08-19T08:54:41;46.33;;;33.90;;
22965;SDS011;11649;48.090;9.754;2022-08-19T09:00:07;51.00;;;35.65;;
22965;SDS011;11649;48.090;9.754;2022-08-19T09:02:41;48.40;;;35.40;;
22965;SDS011;11649;48.090;9.754;2022-08-19T09:05:09;43.60;;;33.03;;
22965;SDS011;11649;48.090;9.754;2022-08-19T09:10:37;41.47;;;32.22;;
22965;SDS011;11649;48.090;9.754;2022-08-19T09:16:06;42.08;;;31.90;;
22965;SDS011;11649;48.090;9.754;2022-08-19T09:18:51;45.25;;;32.75;;
22965;SDS011;11649;48.090;9.754;2022-08-19T09:21:20;38.65;;;30.63;;
22965;SDS011;11649;48.090;9.754;2022-08-19T09:23:58;44.97;;;33.63;;
22965;SDS011;11649;48.090;9.754;2022-08-19T09:26:28;44.60;;;33.05;;
22965;SDS011;11649;48.090;9.754;2022-08-19T09:29:16;39.90;;;30.30;;
22965;SDS011;11649;48.090;9.754;2022-08-19T09:31:43;40.63;;;30.50;;
22965;SDS011;11649;48.090;9.754;2022-08-19T09:34:10;33.70;;;27.10;;
22965;SDS011;11649;48.090;9.754;2022-08-19T09:36:47;31.92;;;25.67;;
22965;SDS011;11649;48.090;9.754;2022-08-19T09:39:16;33.72;;;25.90;;
22965;SDS011;11649;48.090;9.754;2022-08-19T09:41:43;33.17;;;25.85;;
22965;SDS011;11649;48.090;9.754;2022-08-19T09:44:14;31.42;;;25.38;;
22965;SDS011;11649;48.090;9.754;2022-08-19T09:46:41;30.25;;;24.45;;
22965;SDS011;11649;48.090;9.754;2022-08-19T09:49:08;29.00;;;23.40;;
22965;SDS011;11649;48.090;9.754;2022-08-19T09:51:35;29.40;;;23.30;;
22965;SDS011;11649;48.090;9.754;2022-08-19T09:54:03;26.40;;;20.80;;
22965;SDS011;11649;48.090;9.754;2022-08-19T09:56:31;24.67;;;20.45;;
22965;SDS011;11649;48.090;9.754;2022-08-19T09:58:59;25.13;;;19.85;;
22965;SDS011;11649;48.090;9.754;2022-08-19T10:01:29;23.48;;;19.33;;
22965;SDS011;11649;48.090;9.754;2022-08-19T10:03:58;21.48;;;18.73;;
22965;SDS011;11649;48.090;9.754;2022-08-19T10:06:32;23.33;;;19.30;;
22965;SDS011;11649;48.090;9.754;2022-08-19T10:09:11;23.67;;;18.52;;
22965;SDS011;11649;48.090;9.754;2022-08-19T10:11:41;24.08;;;19.65;;
22965;SDS011;11649;48.090;9.754;2022-08-19T10:14:20;22.05;;;18.13;;
22965;SDS011;11649;48.090;9.754;2022-08-19T10:16:49;24.38;;;18.60;;
22965;SDS011;11649;48.090;9.754;2022-08-19T10:19:18;21.02;;;17.23;;
22965;SDS011;11649;48.090;9.754;2022-08-19T10:21:51;25.00;;;18.95;;
22965;SDS011;11649;48.090;9.754;2022-08-19T10:24:20;21.80;;;17.63;;
22965;SDS011;11649;48.090;9.754;2022-08-19T10:26:50;22.60;;;17.48;;
22965;SDS011;11649;48.090;9.754;2022-08-19T10:29:22;20.77;;;17.05;;
22965;SDS011;11649;48.090;9.754;2022-08-19T10:31:58;23.13;;;18.45;;
22965;SDS011;11649;48.090;9.754;2022-08-19T10:34:28;22.88;;;18.30;;
22965;SDS011;11649;48.090;9.754;2022-08-19T10:36:56;21.20;;;17.08;;
22965;SDS011;11649;48.090;9.754;2022-08-19T10:39:27;25.25;;;19.58;;
22965;SDS011;11649;48.090;9.754;2022-08-19T10:41:56;22.27;;;17.30;;
22965;SDS011;11649;48.090;9.754;2022-08-19T10:44:24;18.02;;;15.68;;
22965;SDS011;11649;48.090;9.754;2022-08-19T10:46:57;17.40;;;15.23;;
22965;SDS011;11649;48.090;9.754;2022-08-19T10:49:25;18.52;;;16.25;;
22965;SDS011;11649;48.090;9.754;2022-08-19T10:51:53;19.30;;;16.30;;
22965;SDS011;11649;48.090;9.754;2022-08-19T10:54:45;17.27;;;14.27;;
22965;SDS011;11649;48.090;9.754;2022-08-19T10:57:33;22.45;;;16.40;;
22965;SDS011;11649;48.090;9.754;2022-08-19T11:00:21;19.90;;;15.90;;
22965;SDS011;11649;48.090;9.754;2022-08-19T11:02:49;18.75;;;15.40;;
22965;SDS011;11649;48.090;9.754;2022-08-19T11:05:17;19.55;;;15.65;;
22965;SDS011;11649;48.090;9.754;2022-08-19T11:07:44;17.30;;;14.18;;
22965;SDS011;11649;48.090;9.754;2022-08-19T11:10:13;17.50;;;14.65;;
22965;SDS011;11649;48.090;9.754;2022-08-19T11:12:46;22.85;;;15.63;;
22965;SDS011;11649;48.090;9.754;2022-08-19T11:15:13;18.48;;;15.13;;
22965;SDS011;11649;48.090;9.754;2022-08-19T11:17:41;17.23;;;14.55;;
22965;SDS011;11649;48.090;9.754;2022-08-19T11:20:13;21.73;;;17.50;;
22965;SDS011;11649;48.090;9.754;2022-08-19T11:22:41;18.33;;;14.95;;
22965;SDS011;11649;48.090;9.754;2022-08-19T11:25:08;17.10;;;14.85;;
22965;SDS011;11649;48.090;9.754;2022-08-19T11:27:39;15.82;;;14.05;;
22965;SDS011;11649;48.090;9.754;2022-08-19T11:30:11;15.23;;;12.90;;
22965;SDS011;11649;48.090;9.754;2022-08-19T11:32:40;15.63;;;13.00;;
22965;SDS011;11649;48.090;9.754;2022-08-19T11:35:12;18.13;;;13.48;;
22965;SDS011;11649;48.090;9.754;2022-08-19T11:37:39;14.98;;;12.73;;
22965;SDS011;11649;48.090;9.754;2022-08-19T11:40:06;14.27;;;12.38;;
22965;SDS011;11649;48.090;9.754;2022-08-19T11:42:34;14.07;;;12.10;;
22965;SDS011;11649;48.090;9.754;2022-08-19T11:45:19;13.50;;;12.07;;
22965;SDS011;11649;48.090;9.754;2022-08-19T11:47:46;14.75;;;12.77;;
22965;SDS011;11649;48.090;9.754;2022-08-19T11:50:14;15.30;;;13.07;;
22965;SDS011;11649;48.090;9.754;2022-08-19T11:52:42;14.05;;;12.55;;
22965;SDS011;11649;48.090;9.754;2022-08-19T11:55:11;15.82;;;13.13;;
22965;SDS011;11649;48.090;9.754;2022-08-19T11:57:39;15.45;;;13.80;;
22965;SDS011;11649;48.090;9.754;2022-08-19T12:00:07;15.73;;;13.60;;
22965;SDS011;11649;48.090;9.754;2022-08-19T12:02:36;14.23;;;12.73;;
22965;SDS011;11649;48.090;9.754;2022-08-19T12:05:03;14.85;;;12.98;;
22965;SDS011;11649;48.090;9.754;2022-08-19T12:07:37;14.67;;;12.63;;
22965;SDS011;11649;48.090;9.754;2022-08-19T12:10:04;15.52;;;12.95;;
22965;SDS011;11649;48.090;9.754;2022-08-19T12:12:31;15.85;;;12.73;;
22965;SDS011;11649;48.090;9.754;2022-08-19T12:14:57;13.57;;;12.05;;
22965;SDS011;11649;48.090;9.754;2022-08-19T12:17:27;15.35;;;13.57;;
22965;SDS011;11649;48.090;9.754;2022-08-19T12:19:54;16.75;;;14.82;;
22965;SDS011;11649;48.090;9.754;2022-08-19T12:22:21;16.20;;;13.40;;
22965;SDS011;11649;48.090;9.754;2022-08-19T12:24:48;18.95;;;14.07;;
22965;SDS011;11649;48.090;9.754;2022-08-19T12:27:17;16.83;;;12.98;;
22965;SDS011;11649;48.090;9.754;2022-08-19T12:30:05;15.93;;;13.43;;
22965;SDS011;11649;48.090;9.754;2022-08-19T12:32:34;17.10;;;14.88;;
22965;SDS011;11649;48.090;9.754;2022-08-19T12:35:01;17.98;;;13.55;;
22965;SDS011;11649;48.090;9.754;2022-08-19T12:37:28;13.63;;;12.32;;
22965;SDS011;11649;48.090;9.754;2022-08-19T12:39:56;14.23;;;12.60;;
22965;SDS011;11649;48.090;9.754;2022-08-19T12:42:22;14.48;;;12.98;;
22965;SDS011;11649;48.090;9.754;2022-08-19T12:44:50;14.48;;;12.93;;
22965;SDS011;11649;48.090;9.754;2022-08-19T12:47:18;14.88;;;13.32;;
22965;SDS011;11649;48.090;9.754;2022-08-19T12:49:45;17.10;;;15.30;;
22965;SDS011;11649;48.090;9.754;2022-08-19T12:52:21;17.33;;;15.50;;
22965;SDS011;11649;48.090;9.754;2022-08-19T12:54:50;18.48;;;14.00;;
22965;SDS011;11649;48.090;9.754;2022-08-19T12:57:20;16.85;;;15.05;;
22965;SDS011;11649;48.090;9.754;2022-08-19T12:59:57;16.77;;;14.98;;
22965;SDS011;11649;48.090;9.754;2022-08-19T13:02:24;16.33;;;14.57;;
22965;SDS011;11649;48.090;9.754;2022-08-19T13:04:51;15.02;;;13.43;;
22965;SDS011;11649;48.090;9.754;2022-08-19T13:07:18;15.77;;;13.45;;
22965;SDS011;11649;48.090;9.754;2022-08-19T13:09:44;12.27;;;11.07;;
22965;SDS011;11649;48.090;9.754;2022-08-19T13:12:11;11.05;;;9.90;;
22965;SDS011;11649;48.090;9.754;2022-08-19T13:14:39;9.35;;;8.35;;
22965;SDS011;11649;48.090;9.754;2022-08-19T13:17:07;9.30;;;8.23;;
22965;SDS011;11649;48.090;9.754;2022-08-19T13:19:35;7.07;;;6.38;;
22965;SDS011;11649;48.090;9.754;2022-08-19T13:22:03;7.07;;;6.47;;
22965;SDS011;11649;48.090;9.754;2022-08-19T13:24:40;6.20;;;5.60;;
22965;SDS011;11649;48.090;9.754;2022-08-19T13:27:12;6.63;;;6.00;;
22965;SDS011;11649;48.090;9.754;2022-08-19T13:29:39;6.57;;;5.97;;
22965;SDS011;11649;48.090;9.754;2022-08-19T13:32:26;6.45;;;5.88;;
22965;SDS011;11649;48.090;9.754;2022-08-19T13:35:11;6.72;;;6.10;;
22965;SDS011;11649;48.090;9.754;2022-08-19T13:37:42;8.77;;;6.30;;
22965;SDS011;11649;48.090;9.754;2022-08-19T13:42:39;8.50;;;7.60;;
22965;SDS011;11649;48.090;9.754;2022-08-19T13:45:06;9.88;;;8.73;;
22965;SDS011;11649;48.090;9.754;2022-08-19T13:47:34;12.48;;;11.25;;
22965;SDS011;11649;48.090;9.754;2022-08-19T13:50:04;12.73;;;11.45;;
22965;SDS011;11649;48.090;9.754;2022-08-19T13:52:31;13.63;;;12.25;;
22965;SDS011;11649;48.090;9.754;2022-08-19T13:54:58;12.48;;;11.25;;
22965;SDS011;11649;48.090;9.754;2022-08-19T13:57:24;14.35;;;12.85;;
22965;SDS011;11649;48.090;9.754;2022-08-19T13:59:51;15.35;;;13.75;;
22965;SDS011;11649;48.090;9.754;2022-08-19T14:02:18;17.40;;;15.23;;
22965;SDS011;11649;48.090;9.754;2022-08-19T14:04:45;21.55;;;17.25;;
22965;SDS011;11649;48.090;9.754;2022-08-19T14:07:12;18.50;;;16.48;;
22965;SDS011;11649;48.090;9.754;2022-08-19T14:09:39;19.83;;;17.05;;
22965;SDS011;11649;48.090;9.754;2022-08-19T14:12:06;23.27;;;19.35;;
22965;SDS011;11649;48.090;9.754;2022-08-19T14:14:35;23.13;;;20.38;;
22965;SDS011;11649;48.090;9.754;2022-08-19T14:17:07;26.67;;;22.80;;
22965;SDS011;11649;48.090;9.754;2022-08-19T14:19:38;30.98;;;24.70;;
22965;SDS011;11649;48.090;9.754;2022-08-19T14:22:06;30.55;;;25.55;;
22965;SDS011;11649;48.090;9.754;2022-08-19T14:24:32;28.77;;;25.25;;
22965;SDS011;11649;48.090;9.754;2022-08-19T14:26:59;30.63;;;26.23;;
22965;SDS011;11649;48.090;9.754;2022-08-19T14:29:26;33.85;;;27.15;;
22965;SDS011;11649;48.090;9.754;2022-08-19T14:31:55;31.85;;;26.63;;
22965;SDS011;11649;48.090;9.754;2022-08-19T14:34:25;31.63;;;26.30;;
22965;SDS011;11649;48.090;9.754;2022-08-19T14:36:52;33.15;;;27.88;;
22965;SDS011;11649;48.090;9.754;2022-08-19T14:39:19;33.03;;;26.80;;
22965;SDS011;11649;48.090;9.754;2022-08-19T14:41:46;39.50;;;29.35;;
22965;SDS011;11649;48.090;9.754;2022-08-19T14:44:13;36.33;;;29.45;;
22965;SDS011;11649;48.090;9.754;2022-08-19T14:46:39;33.75;;;28.35;;
22965;SDS011;11649;48.090;9.754;2022-08-19T14:49:14;34.13;;;28.23;;
22965;SDS011;11649;48.090;9.754;2022-08-19T14:51:41;39.83;;;31.98;;
22965;SDS011;11649;48.090;9.754;2022-08-19T14:54:08;36.50;;;29.85;;
22965;SDS011;11649;48.090;9.754;2022-08-19T14:56:35;38.85;;;30.60;;
22965;SDS011;11649;48.090;9.754;2022-08-19T14:59:02;36.45;;;30.02;;
22965;SDS011;11649;48.090;9.754;2022-08-19T15:01:29;43.45;;;33.08;;